createdAt,value
2023-02-16T00:02:59.455Z,81.14
2023-02-16T00:08:02.053Z,81.23
2023-02-16T00:13:44.938Z,80.96
2023-02-16T00:18:48.086Z,80.85
2023-02-16T00:23:49.971Z,80.74
2023-02-16T00:28:54.564Z,80.69
2023-02-16T00:33:56.685Z,80.65
2023-02-16T00:38:58.165Z,80.80
2023-02-16T00:43:59.943Z,81.08
2023-02-16T00:49:01.858Z,80.78
2023-02-16T00:54:03.420Z,81.04
2023-02-16T00:59:07.908Z,81.27
2023-02-16T01:04:12.590Z,81.33
2023-02-16T01:09:35.717Z,82.56
2023-02-16T01:14:37.387Z,81.59
2023-02-16T01:19:39.047Z,81.39
2023-02-16T01:24:40.575Z,81.43
2023-02-16T01:29:42.681Z,81.63
2023-02-16T01:34:44.538Z,81.30
2023-02-16T01:39:46.061Z,80.94
2023-02-16T01:44:51.624Z,81.00
2023-02-16T01:49:53.196Z,81.13
2023-02-16T01:55:05.750Z,80.63
2023-02-16T02:00:12.437Z,80.45
2023-02-16T02:05:37.165Z,80.20
2023-02-16T02:11:14.550Z,80.57
2023-02-16T02:16:24.710Z,80.94
2023-02-16T02:22:15.682Z,81.05
2023-02-16T02:27:26.864Z,80.87
2023-02-16T02:32:47.414Z,81.08
2023-02-16T02:37:58.204Z,81.11
2023-02-16T02:43:18.586Z,80.84
2023-02-16T02:48:20.096Z,80.66
2023-02-16T02:53:21.628Z,80.59
2023-02-16T02:58:44.431Z,80.54
2023-02-16T03:03:52.416Z,80.21
2023-02-16T03:08:58.618Z,79.92
2023-02-16T03:14:21.159Z,79.96
2023-02-16T03:19:41.317Z,79.69
2023-02-16T03:25:02.401Z,80.01
2023-02-16T03:30:06.219Z,80.13
2023-02-16T03:35:08.756Z,80.10
2023-02-16T03:40:29.897Z,80.01
2023-02-16T03:45:35.085Z,80.77
2023-02-16T03:50:37.027Z,81.17
2023-02-16T03:55:44.950Z,81.62
2023-02-16T04:00:47.005Z,81.34
2023-02-16T04:05:48.494Z,81.41
2023-02-16T04:10:50.616Z,81.79
2023-02-16T04:15:52.903Z,81.91
2023-02-16T04:20:54.682Z,82.00
2023-02-16T04:25:56.165Z,82.06
2023-02-16T04:30:57.823Z,81.75
2023-02-16T04:35:59.446Z,82.02
2023-02-16T04:41:01.105Z,81.92
2023-02-16T04:46:02.899Z,82.15
2023-02-16T04:51:05.873Z,81.96
2023-02-16T04:56:12.133Z,81.73
2023-02-16T05:01:25.729Z,81.27
2023-02-16T05:06:27.407Z,81.55
2023-02-16T05:11:47.901Z,81.37
2023-02-16T05:16:49.458Z,81.11
2023-02-16T05:21:50.927Z,80.97
2023-02-16T05:26:52.499Z,80.54
2023-02-16T05:31:54.166Z,80.63
2023-02-16T05:36:56.047Z,80.49
2023-02-16T05:41:57.943Z,80.68
2023-02-16T05:46:59.689Z,80.57
2023-02-16T05:52:02.177Z,80.62
2023-02-16T05:57:03.821Z,80.48
2023-02-16T06:02:05.323Z,81.00
2023-02-16T06:07:06.999Z,80.92
2023-02-16T06:12:08.750Z,81.52
2023-02-16T06:17:10.267Z,81.11
2023-02-16T06:22:11.792Z,81.17
2023-02-16T06:27:13.270Z,80.86
2023-02-16T06:32:15.032Z,81.18
2023-02-16T06:37:16.692Z,81.14
2023-02-16T06:42:18.233Z,80.91
2023-02-16T06:47:19.728Z,80.75
2023-02-16T06:52:21.362Z,80.72
2023-02-16T06:57:22.934Z,81.02
2023-02-16T07:02:24.486Z,81.11
2023-02-16T07:07:26.076Z,80.72
2023-02-16T07:12:28.493Z,80.75
2023-02-16T07:17:30.060Z,80.80
2023-02-16T07:22:32.371Z,80.63
2023-02-16T07:27:33.908Z,80.28
2023-02-16T07:32:35.526Z,80.19
2023-02-16T07:37:37.122Z,80.25
2023-02-16T07:42:39.178Z,80.57
2023-02-16T07:47:40.711Z,80.41
2023-02-16T07:52:42.672Z,80.17
2023-02-16T07:57:44.234Z,80.24
2023-02-16T08:02:45.848Z,79.98
2023-02-16T08:07:47.922Z,80.32
2023-02-16T08:12:49.895Z,80.08
2023-02-16T08:17:51.471Z,79.63
2023-02-16T08:22:54.822Z,79.51
2023-02-16T08:27:56.360Z,79.38
2023-02-16T08:33:01.165Z,79.61
2023-02-16T08:38:02.661Z,79.17
2023-02-16T08:43:04.327Z,79.19
2023-02-16T08:48:06.395Z,78.81
2023-02-16T08:53:07.928Z,78.44
2023-02-16T08:58:09.405Z,78.87
2023-02-16T09:03:10.958Z,77.98
2023-02-16T09:08:12.910Z,77.58
2023-02-16T09:13:15.163Z,76.74
2023-02-16T09:18:16.849Z,76.39
2023-02-16T09:23:20.503Z,75.96
2023-02-16T09:28:22.181Z,75.69
2023-02-16T09:33:23.859Z,76.70
2023-02-16T09:38:25.674Z,75.51
2023-02-16T09:43:53.146Z,75.02
2023-02-16T09:48:55.337Z,75.38
2023-02-16T09:54:03.999Z,73.99
2023-02-16T09:59:27.037Z,74.48
2023-02-16T10:04:54.085Z,74.42
2023-02-16T10:09:57.185Z,74.77
2023-02-16T10:15:09.375Z,74.22
2023-02-16T10:20:23.245Z,73.05
2023-02-16T10:25:48.971Z,72.61
2023-02-16T10:31:06.154Z,71.75
2023-02-16T10:36:23.336Z,72.27
2023-02-16T10:41:33.028Z,71.56
2023-02-16T10:46:40.418Z,71.76
2023-02-16T10:51:47.195Z,70.71
2023-02-16T10:57:00.799Z,70.92
2023-02-16T11:02:19.251Z,70.29
2023-02-16T11:07:27.054Z,71.38
2023-02-16T11:12:42.981Z,70.25
2023-02-16T11:17:49.207Z,68.87
2023-02-16T11:22:51.703Z,69.51
2023-02-16T11:28:05.500Z,69.22
2023-02-16T11:33:27.005Z,68.50
2023-02-16T11:38:30.757Z,68.57
2023-02-16T11:43:36.552Z,68.41
2023-02-16T11:48:38.134Z,68.18
2023-02-16T11:53:42.564Z,67.59
2023-02-16T11:58:45.168Z,68.84
2023-02-16T12:04:24.617Z,67.92
2023-02-16T12:09:39.542Z,65.90
2023-02-16T12:15:00.041Z,67.34
2023-02-16T12:20:04.401Z,66.39
2023-02-16T12:25:08.531Z,65.84
2023-02-16T12:30:34.132Z,66.33
2023-02-16T12:36:13.432Z,66.23
2023-02-16T12:41:23.915Z,64.62
2023-02-16T12:46:52.804Z,65.22
2023-02-16T12:52:05.389Z,65.36
2023-02-16T12:57:17.504Z,64.93
2023-02-16T13:02:44.518Z,64.63
2023-02-16T13:07:49.564Z,64.02
2023-02-16T13:13:01.118Z,63.26
2023-02-16T13:18:15.501Z,65.38
2023-02-16T13:24:19.024Z,65.26
2023-02-16T13:29:47.744Z,64.43
2023-02-16T13:35:08.854Z,62.24
2023-02-16T13:40:25.708Z,63.33
2023-02-16T13:45:32.399Z,62.35
2023-02-16T13:50:34.288Z,64.03
2023-02-16T13:55:38.745Z,64.32
2023-02-16T14:00:48.054Z,64.12
2023-02-16T14:05:52.164Z,64.63
2023-02-16T14:10:54.300Z,64.82
2023-02-16T14:15:59.374Z,64.87
2023-02-16T14:21:04.942Z,65.03
2023-02-16T14:26:10.181Z,65.23
2023-02-16T14:31:18.402Z,65.50
2023-02-16T14:36:24.342Z,65.47
2023-02-16T14:41:36.963Z,65.95
2023-02-16T14:46:50.717Z,65.90
2023-02-16T14:52:14.165Z,66.01
2023-02-16T14:58:08.218Z,66.41
2023-02-16T15:03:24.673Z,66.34
2023-02-16T15:08:35.864Z,66.71
2023-02-16T15:13:38.541Z,67.63
2023-02-16T15:18:44.113Z,67.88
2023-02-16T15:23:51.821Z,67.54
2023-02-16T15:28:56.625Z,67.49
2023-02-16T15:34:01.329Z,67.57
2023-02-16T15:39:08.983Z,67.91
2023-02-16T15:44:34.282Z,68.03
2023-02-16T15:49:38.949Z,68.38
2023-02-16T15:54:41.059Z,68.60
2023-02-16T15:59:57.209Z,68.75
2023-02-16T16:05:02.393Z,69.74
2023-02-16T16:10:17.302Z,70.10
2023-02-16T16:15:22.914Z,69.53
2023-02-16T16:20:27.642Z,69.71
2023-02-16T16:25:45.464Z,70.26
2023-02-16T16:30:47.040Z,70.46
2023-02-16T16:35:50.694Z,71.52
2023-02-16T16:41:01.161Z,70.97
2023-02-16T16:46:14.245Z,71.92
2023-02-16T16:51:27.653Z,72.20
2023-02-16T16:56:31.100Z,71.94
2023-02-16T17:01:33.066Z,72.03
2023-02-16T17:06:34.597Z,72.15
2023-02-16T17:11:38.018Z,72.25
2023-02-16T17:16:45.460Z,72.94
2023-02-16T17:21:47.882Z,73.34
2023-02-16T17:26:50.261Z,72.93
2023-02-16T17:31:52.002Z,72.68
2023-02-16T17:36:53.748Z,72.84
2023-02-16T17:41:55.331Z,72.82
2023-02-16T17:46:56.899Z,73.39
2023-02-16T17:51:58.373Z,73.57
2023-02-16T17:57:00.069Z,73.47
2023-02-16T18:02:01.589Z,73.43
2023-02-16T18:07:03.118Z,73.81
2023-02-16T18:12:04.981Z,74.38
2023-02-16T18:17:07.061Z,74.53
2023-02-16T18:22:08.713Z,74.88
2023-02-16T18:27:10.709Z,74.59
2023-02-16T18:32:12.440Z,74.21
2023-02-16T18:37:14.372Z,74.71
2023-02-16T18:42:16.540Z,74.62
2023-02-16T18:47:18.253Z,75.30
2023-02-16T18:52:20.410Z,75.29
2023-02-16T18:57:22.721Z,75.19
2023-02-16T19:02:24.247Z,75.27
2023-02-16T19:07:25.921Z,75.73
2023-02-16T19:12:27.440Z,75.99
2023-02-16T19:17:28.909Z,75.71
2023-02-16T19:22:31.551Z,75.58
2023-02-16T19:27:33.441Z,75.55
2023-02-16T19:32:35.014Z,76.26
2023-02-16T19:37:36.563Z,76.12
2023-02-16T19:42:39.169Z,75.87
2023-02-16T19:47:41.694Z,75.61
2023-02-16T19:52:43.246Z,75.94
2023-02-16T19:57:44.764Z,76.53
2023-02-16T20:02:46.293Z,76.28
2023-02-16T20:07:47.801Z,75.82
2023-02-16T20:12:49.287Z,75.87
2023-02-16T20:17:51.204Z,76.30
2023-02-16T20:22:52.695Z,76.49
2023-02-16T20:27:57.178Z,75.90
2023-02-16T20:32:58.698Z,75.97
2023-02-16T20:38:00.298Z,75.75
2023-02-16T20:43:01.789Z,76.24
2023-02-16T20:48:04.187Z,76.56
2023-02-16T20:53:06.450Z,76.18
2023-02-16T20:58:07.980Z,76.15
2023-02-16T21:03:09.902Z,76.02
2023-02-16T21:08:11.417Z,76.70
2023-02-16T21:13:13.309Z,76.71
2023-02-16T21:18:14.847Z,76.40
2023-02-16T21:23:16.450Z,76.28
2023-02-16T21:28:18.190Z,76.49
2023-02-16T21:33:20.282Z,76.68
2023-02-16T21:38:22.127Z,76.97
2023-02-16T21:43:23.651Z,77.00
2023-02-16T21:48:44.010Z,76.79
2023-02-16T21:53:46.086Z,77.61
2023-02-16T21:58:47.740Z,77.18
2023-02-16T22:03:50.098Z,77.78
2023-02-16T22:08:52.120Z,77.26
2023-02-16T22:13:55.727Z,77.50
2023-02-16T22:19:07.350Z,77.80
2023-02-16T22:24:13.038Z,78.45
2023-02-16T22:29:14.544Z,78.13
2023-02-16T22:34:19.263Z,77.96
2023-02-16T22:39:21.163Z,78.24
2023-02-16T22:44:22.676Z,78.43
2023-02-16T22:49:24.164Z,78.12
2023-02-16T22:54:26.040Z,78.38
2023-02-16T22:59:27.973Z,78.31
2023-02-16T23:04:29.504Z,78.68
2023-02-16T23:09:31.010Z,78.75
2023-02-16T23:14:37.290Z,78.27
2023-02-16T23:19:40.182Z,78.57
2023-02-16T23:24:41.838Z,78.57
2023-02-16T23:29:43.447Z,78.43
2023-02-16T23:34:44.977Z,78.73
2023-02-16T23:39:46.486Z,78.64
2023-02-16T23:44:48.008Z,78.65
2023-02-16T23:49:49.911Z,78.86
2023-02-16T23:54:52.021Z,79.20
2023-02-16T23:59:53.547Z,78.64
